createdAt,value
2022-08-31T00:04:13.402Z,18.80
2022-08-31T00:09:15.589Z,18.80
2022-08-31T00:14:17.802Z,18.80
2022-08-31T00:19:20.093Z,18.80
2022-08-31T00:24:22.305Z,18.80
2022-08-31T00:29:24.533Z,18.70
2022-08-31T00:34:28.053Z,18.70
2022-08-31T00:39:30.946Z,18.70
2022-08-31T00:44:33.385Z,18.60
2022-08-31T00:49:39.393Z,18.60
2022-08-31T00:54:43.768Z,18.60
2022-08-31T00:59:48.717Z,18.60
2022-08-31T01:04:51.028Z,18.60
2022-08-31T01:09:56.099Z,18.60
2022-08-31T01:14:59.871Z,18.60
2022-08-31T01:20:23.344Z,18.60
2022-08-31T01:25:33.553Z,18.70
2022-08-31T01:30:37.295Z,18.50
2022-08-31T01:35:45.064Z,18.40
2022-08-31T01:40:55.665Z,18.40
2022-08-31T01:45:58.142Z,18.40
2022-08-31T01:51:01.680Z,18.40
2022-08-31T01:56:05.343Z,18.40
2022-08-31T02:01:31.172Z,18.40
2022-08-31T02:06:32.205Z,18.40
2022-08-31T02:11:34.543Z,18.40
2022-08-31T02:16:37.857Z,18.40
2022-08-31T02:21:41.818Z,18.30
2022-08-31T02:26:44.235Z,18.30
2022-08-31T02:31:46.573Z,18.30
2022-08-31T02:36:50.523Z,18.20
2022-08-31T02:41:52.852Z,18.20
2022-08-31T02:46:55.416Z,18.20
2022-08-31T02:52:12.765Z,18.20
2022-08-31T02:57:15.598Z,18.20
2022-08-31T03:02:18.172Z,18.20
2022-08-31T03:07:21.446Z,18.20
2022-08-31T03:12:24.197Z,18.10
2022-08-31T03:17:26.379Z,18.10
2022-08-31T03:22:29.900Z,18.20
2022-08-31T03:27:32.688Z,18.20
2022-08-31T03:32:35.674Z,18.20
2022-08-31T03:37:37.820Z,18.20
2022-08-31T03:42:40.457Z,18.10
2022-08-31T03:47:45.774Z,18.00
2022-08-31T03:52:49.936Z,18.00
2022-08-31T03:57:55.188Z,18.10
2022-08-31T04:03:00.064Z,18.00
2022-08-31T04:08:08.076Z,18.00
2022-08-31T04:13:18.965Z,18.10
2022-08-31T04:18:45.757Z,18.00
2022-08-31T04:23:49.342Z,18.10
2022-08-31T04:28:52.217Z,18.10
2022-08-31T04:33:56.645Z,18.10
2022-08-31T04:39:01.561Z,18.10
2022-08-31T04:44:04.965Z,18.10
2022-08-31T04:49:10.847Z,18.10
2022-08-31T04:54:13.965Z,18.10
2022-08-31T04:59:18.907Z,18.20
2022-08-31T05:04:40.516Z,18.20
2022-08-31T05:09:42.632Z,18.20
2022-08-31T05:14:44.767Z,18.20
2022-08-31T05:19:57.708Z,18.30
2022-08-31T05:24:59.900Z,18.30
2022-08-31T05:30:03.568Z,18.30
2022-08-31T05:35:37.739Z,18.40
2022-08-31T05:40:40.208Z,18.40
2022-08-31T05:45:43.302Z,18.40
2022-08-31T05:50:46.243Z,18.40
2022-08-31T05:55:48.514Z,18.40
2022-08-31T06:00:50.760Z,18.50
2022-08-31T06:06:13.983Z,18.50
2022-08-31T06:11:19.378Z,18.50
2022-08-31T06:16:23.147Z,18.50
2022-08-31T06:21:31.026Z,18.50
2022-08-31T06:26:35.526Z,18.50
2022-08-31T06:31:47.203Z,18.60
2022-08-31T06:36:52.936Z,18.60
2022-08-31T06:42:13.854Z,18.60
2022-08-31T06:47:31.356Z,18.60
2022-08-31T06:52:38.324Z,18.60
2022-08-31T06:57:52.659Z,18.70
2022-08-31T07:03:33.257Z,18.70
2022-08-31T07:08:38.741Z,18.80
2022-08-31T07:13:42.468Z,18.90
2022-08-31T07:18:45.423Z,19.00
2022-08-31T07:23:50.351Z,19.00
2022-08-31T07:28:57.041Z,19.20
2022-08-31T07:33:59.689Z,19.30
2022-08-31T07:39:41.685Z,19.40
2022-08-31T07:44:52.880Z,19.50
2022-08-31T07:49:58.577Z,19.60
2022-08-31T07:55:23.903Z,19.70
2022-08-31T08:00:36.241Z,19.70
2022-08-31T08:05:41.743Z,19.80
2022-08-31T08:11:10.148Z,19.90
2022-08-31T08:16:12.399Z,19.90
2022-08-31T08:21:33.596Z,20.00
2022-08-31T08:26:37.677Z,20.00
2022-08-31T08:31:40.510Z,20.00
2022-08-31T08:36:42.819Z,20.10
2022-08-31T08:41:47.557Z,20.20
2022-08-31T08:47:02.714Z,20.30
2022-08-31T08:52:29.810Z,20.30
2022-08-31T08:57:34.699Z,20.50
2022-08-31T09:03:12.165Z,20.60
2022-08-31T09:08:47.421Z,20.90
2022-08-31T09:14:21.133Z,21.20
2022-08-31T09:19:23.931Z,21.40
2022-08-31T09:24:30.202Z,21.30
2022-08-31T09:30:00.562Z,21.30
2022-08-31T09:35:23.870Z,21.30
2022-08-31T09:40:38.389Z,21.30
2022-08-31T09:45:59.655Z,21.40
2022-08-31T09:51:03.719Z,21.60
2022-08-31T09:56:18.565Z,21.80
2022-08-31T10:01:38.855Z,21.90
2022-08-31T10:07:08.088Z,22.00
2022-08-31T10:12:15.700Z,22.00
2022-08-31T10:17:52.760Z,22.00
2022-08-31T10:28:51.340Z,22.30
2022-08-31T10:34:30.044Z,22.50
2022-08-31T10:40:01.093Z,22.70
2022-08-31T10:45:24.793Z,22.90
2022-08-31T10:50:53.078Z,23.30
2022-08-31T10:56:04.321Z,23.30
2022-08-31T11:01:17.936Z,23.10
2022-08-31T11:06:25.939Z,22.80
2022-08-31T11:11:37.347Z,22.80
2022-08-31T11:17:02.483Z,23.20
2022-08-31T11:22:18.579Z,23.70
2022-08-31T11:27:25.712Z,23.60
2022-08-31T11:32:46.330Z,23.60
2022-08-31T11:37:52.911Z,23.60
2022-08-31T11:42:57.879Z,23.10
2022-08-31T11:48:00.656Z,23.50
2022-08-31T11:53:44.448Z,24.00
2022-08-31T11:58:49.676Z,24.00
2022-08-31T12:04:03.433Z,24.30
2022-08-31T12:09:14.714Z,24.30
2022-08-31T12:14:22.872Z,24.60
2022-08-31T12:20:00.938Z,24.40
2022-08-31T12:25:12.970Z,24.10
2022-08-31T12:30:18.477Z,24.70
2022-08-31T12:35:20.565Z,24.80
2022-08-31T12:40:24.962Z,25.80
2022-08-31T12:45:47.244Z,26.60
2022-08-31T12:50:52.436Z,26.50
2022-08-31T12:56:07.670Z,25.70
2022-08-31T13:01:14.143Z,26.00
2022-08-31T13:06:28.364Z,26.10
2022-08-31T13:11:40.740Z,25.80
2022-08-31T13:16:47.002Z,25.50
2022-08-31T13:21:51.556Z,25.60
2022-08-31T13:27:09.569Z,25.60
2022-08-31T13:32:33.048Z,25.40
2022-08-31T13:37:40.714Z,25.60
2022-08-31T13:42:54.466Z,25.50
2022-08-31T13:48:06.271Z,25.40
2022-08-31T13:53:26.378Z,25.80
2022-08-31T13:58:32.239Z,26.20
2022-08-31T14:03:59.307Z,26.10
2022-08-31T14:09:16.438Z,26.00
2022-08-31T14:14:24.525Z,26.00
2022-08-31T14:19:39.428Z,26.10
2022-08-31T14:24:42.632Z,26.00
2022-08-31T14:29:44.997Z,25.90
2022-08-31T14:34:49.357Z,26.00
2022-08-31T14:39:55.391Z,26.00
2022-08-31T14:45:04.436Z,26.60
2022-08-31T14:50:07.699Z,26.40
2022-08-31T14:55:11.378Z,25.90
2022-08-31T15:00:22.052Z,25.80
2022-08-31T15:05:25.410Z,25.50
2022-08-31T15:10:27.996Z,25.20
2022-08-31T15:15:30.340Z,25.20
2022-08-31T15:20:36.300Z,25.10
2022-08-31T15:25:39.343Z,24.80
2022-08-31T15:30:41.721Z,24.60
2022-08-31T15:35:44.063Z,24.70
2022-08-31T15:40:46.574Z,25.00
2022-08-31T15:45:48.866Z,24.80
2022-08-31T15:51:00.327Z,24.80
2022-08-31T15:56:09.460Z,24.60
2022-08-31T16:01:16.529Z,24.40
2022-08-31T16:06:21.805Z,24.20
2022-08-31T16:11:27.050Z,24.80
2022-08-31T16:16:33.375Z,25.50
2022-08-31T16:21:39.853Z,24.90
2022-08-31T16:26:43.524Z,24.10
2022-08-31T16:31:46.756Z,23.80
2022-08-31T16:36:50.524Z,23.50
2022-08-31T16:41:52.632Z,23.30
2022-08-31T16:46:54.884Z,23.10
2022-08-31T16:51:57.044Z,22.90
2022-08-31T16:56:59.227Z,22.70
2022-08-31T17:02:01.427Z,22.70
2022-08-31T17:07:04.088Z,22.50
2022-08-31T17:12:12.225Z,22.50
2022-08-31T17:17:17.676Z,22.50
2022-08-31T17:22:29.864Z,22.40
2022-08-31T17:27:35.478Z,22.40
2022-08-31T17:32:44.515Z,22.30
2022-08-31T17:37:48.371Z,22.50
2022-08-31T17:42:53.504Z,22.70
2022-08-31T17:47:57.254Z,22.90
2022-08-31T17:52:59.493Z,23.10
2022-08-31T17:58:01.684Z,23.10
2022-08-31T18:03:03.926Z,23.30
2022-08-31T18:08:06.150Z,23.20
2022-08-31T18:13:08.464Z,22.90
2022-08-31T18:18:11.639Z,22.70
2022-08-31T18:23:16.561Z,22.50
2022-08-31T18:28:19.014Z,22.40
2022-08-31T18:33:21.687Z,22.50
2022-08-31T18:38:23.937Z,22.50
2022-08-31T18:43:44.824Z,22.40
2022-08-31T18:49:01.147Z,22.20
2022-08-31T18:54:15.434Z,22.00
2022-08-31T18:59:20.170Z,21.90
2022-08-31T19:04:22.381Z,21.70
2022-08-31T19:09:25.337Z,21.60
2022-08-31T19:14:34.740Z,21.50
2022-08-31T19:19:38.360Z,21.40
2022-08-31T19:24:40.853Z,21.30
2022-08-31T19:29:43.351Z,21.30
2022-08-31T19:34:48.151Z,21.30
2022-08-31T19:39:50.445Z,21.20
2022-08-31T19:45:22.643Z,21.20
2022-08-31T19:50:18.863Z,21.20
2022-08-31T19:55:20.993Z,21.10
2022-08-31T20:00:23.277Z,21.10
2022-08-31T20:05:26.377Z,21.10
2022-08-31T20:10:29.791Z,21.00
2022-08-31T20:15:32.379Z,21.00
2022-08-31T20:20:46.253Z,21.00
2022-08-31T20:25:50.544Z,20.90
2022-08-31T20:31:00.120Z,20.90
2022-08-31T20:36:11.747Z,21.00
2022-08-31T20:41:14.795Z,20.90
2022-08-31T20:46:52.522Z,20.90
2022-08-31T20:51:55.959Z,20.80
2022-08-31T20:57:00.431Z,20.90
2022-08-31T21:02:05.720Z,20.80
2022-08-31T21:07:12.096Z,20.80
2022-08-31T21:12:17.860Z,20.70
2022-08-31T21:17:21.903Z,20.70
2022-08-31T21:22:24.173Z,20.70
2022-08-31T21:27:29.498Z,20.70
2022-08-31T21:32:31.643Z,20.60
2022-08-31T21:37:33.874Z,20.60
2022-08-31T21:42:36.071Z,20.60
2022-08-31T21:47:38.172Z,20.50
2022-08-31T21:52:40.391Z,20.50
2022-08-31T21:57:43.715Z,20.40
2022-08-31T22:02:46.911Z,20.40
2022-08-31T22:07:49.312Z,20.30
2022-08-31T22:12:51.414Z,20.30
2022-08-31T22:18:11.774Z,20.30
2022-08-31T22:23:15.693Z,20.30
2022-08-31T22:28:18.284Z,20.20
2022-08-31T22:33:20.673Z,20.20
2022-08-31T22:38:23.031Z,20.10
2022-08-31T22:43:25.429Z,20.10
2022-08-31T22:48:27.535Z,20.10
2022-08-31T22:53:29.671Z,20.00
2022-08-31T22:58:31.779Z,20.00
2022-08-31T23:03:33.930Z,19.90
2022-08-31T23:08:36.024Z,19.90
2022-08-31T23:13:55.535Z,19.90
2022-08-31T23:19:02.636Z,19.90
2022-08-31T23:24:04.910Z,19.90
2022-08-31T23:29:10.077Z,20.00
2022-08-31T23:34:13.298Z,19.90
2022-08-31T23:39:20.345Z,19.90
2022-08-31T23:44:22.492Z,19.80
2022-08-31T23:49:24.795Z,19.80
2022-08-31T23:54:28.772Z,19.90
2022-08-31T23:59:31.681Z,19.90
